Regent: Past 24 Hour Conditions

 

Gjoa Haven Airport

08:00 PM MST 17 December 2014
Disclaimer

This table is a summary of hourly weather conditions for the past 24 hours.
Please note that these observations might not always be representative of weather conditions over their associated marine area.

Date / Time
(MST)
Wind(knots) Conditions Visibility(km) Pressure(kPa) Air tempC) Relative humidity(%) Dew pointC) Wind Chill
17 December 2014
20:00 N 10 Clear 16 101.8 -31 76 -34 -44
19:00 N 14 Haze 10 101.7 -31 76 -34 -46
18:00 NNE 14 Clear 11 101.6 -30 77 -33 -45
17:00 N 13 Clear 15 101.5 -30 77 -33 -44
16:00 N 11 Clear 16 101.5 -30 77 -33 -43
15:00 N 14 Clear 15 101.4 -30 76 -33 -45
14:00 N 14 Haze 8 101.4 -30 77 -32 -44
13:00 N 13 gust 18 Clear 11 101.3 -29 77 -32 -43
12:00 NNE 7 Clear 16 101.2 -28 78 -31 -39
11:00 N 12 Partly Cloudy 16 101.2 -28 78 -30 -41
10:00 N 13 Mainly Clear 16 101.1 -27 80 -29 -40
9:00 NNW 13 Mostly Cloudy 16 101.1 -26 81 -28 -39
8:00 N 8 Partly Cloudy 16 101.1 -24 82 -26 -34
7:00 NNW 9 Mostly Cloudy 16 101.1 -23 84 -25 -33
6:00 NNW 12 Cloudy 16 101.1 -22 85 -24 -33
5:00 NNW 13 Cloudy 16 101.0 -21 85 -23 -33
4:00 WNW 11 Mostly Cloudy 16 101.0 -21 85 -23 -32
3:00 WNW 11 Cloudy 16 101.0 -20 86 -22 -31
2:00 WNW 8 Cloudy 16 100.9 -20 86 -22 -29
1:00 NW 9 Cloudy 16 100.9 -20 86 -22 -29
0:00 NW 14 gust 19 Cloudy 16 100.9 -18 88 -20 -30
16 December 2014
23:00 WNW 12 Cloudy 16 100.8 -17 89 -19 -27
22:00 WNW 15 gust 20 Cloudy 16 100.7 -17 89 -18 -28
21:00 WNW 14 Cloudy 16 100.6 -17 89 -18 -28
20:00 WNW 15 gust 20 Mist 10 100.6 -17 89 -19 -29
Map of Arctic - Eastern Arctic marine weather areas Baker Lake Airport Chesterfield Inlet Airport Coral Harbour Airport Gjoa Haven Airport Kugaaruk Airport Rankin Inlet Airport Shepherd Bay Airport Whale Cove Airport Arctic Bay Brevoort Island Qikiqtarjuaq Airport Cape Dorset Airport Cape Dyer Cape Hooper Clyde Airport Grise Fiord Airport Hall Beach Airport Igloolik Airport Iqaluit Airport Longstaff Bluff Pangnirtung Airport Pond Inlet Airport Repulse Bay Airport Resolute Airport Resolution Island Rowley Island Airport Taloyoak Airport Wager Bay Akulivik Airport Ivujivik Airport Puvirnituq Airport Kangiqsujuaq Airport Kangirsuk Airport Quaqtaq Airport Tasiujaq Airport Cape Kakkiviak Cape Kiglapait Nain Airport Saglek Cape Mercy Kimmirut Airport Aupaluk Airport Salluit Airport Kangiqsualujjuaq Airport Cape Liverpool Fort Ross
Legend:
buoy Buoy
land station Land Station

Arctic - Eastern Arctic Area

Another Region

What we are doing

Date modified: